Portada
METAR-TAF:

METAR-TAF

Aeropuertos :

Jark, Irán

latitud: 29-15-34N, longitud: 50-19-24E, altitud: 5 m

Observación

El informe se hizo hace 54 minutos, a las 05:00 UTC
Viento 8 kt del este
Temperatura 22°C
Humedad 83%
Presión 1004 hPa
Visibilidad: 6000 m
Escasas nubes a una altura de 3000 ft, Cumulonimbus.
Nubes dispersas a una altura de 4000 ft
Cielo cubierto a una altura de 9000 ft
tormenta

METAR: OIBQ 250500Z 09008KT 6000 TS FEW030CB SCT040 OVC090 22/19 Q1004

Hora: 10:24 (05:54 UTC)


TAF: falta

Observaciones y pronósticos meteorológicos de más de 4000 aeropuertos (mensajes METAR y TAF).

Los puntos amarillos y rojos representan las estaciones disponibles.

Ponga el ratón en el punto deseado para ver el nombre de la estación.

Haga clic para ver las observaciones y los pronósticos meteorológicos.

Para cambiar el mapa : haga clic en los botones verdes con una cruz de color negro para hacer un zoom, en el botón verde con un guión para alejar o en las flechas verdes para mapas adyacentes.


METAR-TAF: